createdAt,value
2019-02-24T00:02:21.730Z,66.24
2019-02-24T00:04:50.940Z,66.24
2019-02-24T00:07:20.102Z,66.57
2019-02-24T00:09:49.237Z,66.75
2019-02-24T00:12:18.467Z,66.68
2019-02-24T00:14:47.687Z,66.50
2019-02-24T00:17:16.808Z,66.54
2019-02-24T00:19:45.951Z,66.88
2019-02-24T00:22:15.147Z,66.48
2019-02-24T00:24:44.358Z,66.48
2019-02-24T00:27:13.519Z,66.62
2019-02-24T00:29:42.696Z,66.62
2019-02-24T00:32:11.833Z,67.14
2019-02-24T00:34:40.999Z,67.25
2019-02-24T00:37:10.171Z,67.26
2019-02-24T00:39:39.373Z,67.05
2019-02-24T00:42:08.590Z,66.79
2019-02-24T00:44:37.747Z,66.88
2019-02-24T00:47:06.947Z,66.88
2019-02-24T00:49:36.108Z,66.97
2019-02-24T00:52:05.253Z,66.91
2019-02-24T00:54:34.414Z,66.86
2019-02-24T00:57:03.561Z,66.86
2019-02-24T00:59:32.768Z,67.20
2019-02-24T01:02:01.917Z,67.20
2019-02-24T01:04:31.104Z,67.22
2019-02-24T01:07:00.228Z,67.46
2019-02-24T01:09:29.384Z,67.46
2019-02-24T01:11:58.574Z,67.40
2019-02-24T01:14:27.714Z,67.46
2019-02-24T01:16:57.084Z,67.43
2019-02-24T01:19:26.230Z,67.49
2019-02-24T01:21:55.392Z,67.65
2019-02-24T01:24:24.530Z,67.86
2019-02-24T01:26:53.673Z,67.90
2019-02-24T01:29:22.819Z,68.00
2019-02-24T01:31:51.997Z,68.00
2019-02-24T01:34:21.176Z,67.89
2019-02-24T01:36:50.329Z,67.91
2019-02-24T01:39:19.455Z,67.78
2019-02-24T01:41:48.624Z,67.87
2019-02-24T01:44:17.770Z,67.91
2019-02-24T01:46:46.981Z,68.05
2019-02-24T01:49:16.118Z,68.44
2019-02-24T01:51:45.319Z,68.30
2019-02-24T01:54:14.466Z,68.35
2019-02-24T01:56:43.604Z,68.36
2019-02-24T01:59:12.756Z,68.82
2019-02-24T02:01:41.901Z,68.80
2019-02-24T02:04:11.039Z,69.17
2019-02-24T02:06:40.180Z,69.16
2019-02-24T02:09:09.326Z,69.10
2019-02-24T02:11:38.480Z,69.20
2019-02-24T02:14:07.674Z,69.05
2019-02-24T02:16:36.856Z,69.03
2019-02-24T02:19:06.000Z,69.02
2019-02-24T02:21:35.140Z,69.09
2019-02-24T02:24:04.292Z,69.04
2019-02-24T02:26:33.437Z,69.03
2019-02-24T02:29:02.609Z,69.11
2019-02-24T02:31:31.844Z,69.17
2019-02-24T02:34:01.048Z,69.58
2019-02-24T02:36:30.218Z,69.30
2019-02-24T02:38:59.356Z,69.41
2019-02-24T02:41:28.503Z,69.31
2019-02-24T02:43:57.639Z,69.16
2019-02-24T02:46:26.805Z,69.49
2019-02-24T02:48:55.969Z,69.46
2019-02-24T02:51:25.134Z,69.45
2019-02-24T02:53:54.371Z,69.66
2019-02-24T02:56:23.545Z,70.12
2019-02-24T02:58:54.569Z,70.13
2019-02-24T03:01:23.590Z,70.01
2019-02-24T03:03:52.757Z,69.89
2019-02-24T03:06:44.877Z,69.77
2019-02-24T03:09:14.006Z,69.73
2019-02-24T03:11:43.147Z,69.99
2019-02-24T03:14:12.301Z,70.19
2019-02-24T03:16:41.468Z,70.35
2019-02-24T03:19:10.627Z,70.31
2019-02-24T03:21:39.827Z,70.41
2019-02-24T03:24:08.992Z,70.35
2019-02-24T03:26:38.179Z,70.59
2019-02-24T03:29:07.348Z,70.23
2019-02-24T03:31:36.536Z,70.25
2019-02-24T03:34:05.671Z,70.32
2019-02-24T03:36:34.844Z,70.35
2019-02-24T03:39:04.237Z,70.39
2019-02-24T03:41:33.388Z,70.38
2019-02-24T03:44:02.579Z,70.52
2019-02-24T03:46:31.735Z,70.83
2019-02-24T03:49:00.909Z,70.35
2019-02-24T03:51:30.054Z,70.15
2019-02-24T03:53:59.215Z,70.24
2019-02-24T03:56:28.468Z,70.23
2019-02-24T03:58:57.656Z,70.38
2019-02-24T04:01:26.803Z,70.38
2019-02-24T04:03:56.165Z,70.52
2019-02-24T04:06:25.307Z,70.16
2019-02-24T04:08:54.442Z,69.92
2019-02-24T04:11:23.562Z,69.56
2019-02-24T04:13:52.722Z,69.67
2019-02-24T04:16:24.020Z,69.61
2019-02-24T04:18:53.158Z,69.49
2019-02-24T04:21:22.323Z,69.71
2019-02-24T04:23:51.792Z,70.04
2019-02-24T04:26:20.984Z,70.16
2019-02-24T04:28:50.130Z,70.32
2019-02-24T04:31:19.313Z,70.45
2019-02-24T04:33:48.426Z,70.53
2019-02-24T04:36:17.572Z,70.66
2019-02-24T04:38:46.791Z,70.58
2019-02-24T04:41:15.942Z,70.39
2019-02-24T04:43:45.084Z,70.28
2019-02-24T04:46:14.243Z,70.17
2019-02-24T04:48:43.358Z,70.30
2019-02-24T04:51:12.519Z,70.37
2019-02-24T04:53:41.645Z,70.28
2019-02-24T04:56:10.777Z,70.22
2019-02-24T04:58:39.910Z,70.42
2019-02-24T05:01:10.615Z,70.74
2019-02-24T05:03:39.737Z,70.69
2019-02-24T05:06:08.880Z,70.72
2019-02-24T05:08:37.999Z,70.67
2019-02-24T05:11:07.162Z,70.51
2019-02-24T05:13:36.295Z,71.01
2019-02-24T05:16:05.454Z,71.09
2019-02-24T05:18:34.580Z,71.22
2019-02-24T05:21:03.717Z,71.15
2019-02-24T05:23:32.892Z,70.92
2019-02-24T05:26:02.058Z,70.79
2019-02-24T05:28:31.186Z,70.66
2019-02-24T05:31:00.338Z,70.91
2019-02-24T05:33:29.559Z,70.75
2019-02-24T05:35:58.728Z,70.66
2019-02-24T05:38:27.857Z,70.63
2019-02-24T05:40:56.998Z,70.64
2019-02-24T05:43:26.134Z,70.65
2019-02-24T05:45:55.298Z,70.79
2019-02-24T05:48:24.432Z,71.15
2019-02-24T05:50:53.651Z,71.30
2019-02-24T05:53:22.791Z,71.13
2019-02-24T05:55:51.948Z,70.98
2019-02-24T05:58:21.090Z,70.86
2019-02-24T06:00:50.346Z,71.02
2019-02-24T06:03:19.479Z,71.20
2019-02-24T06:05:48.627Z,71.14
2019-02-24T06:08:17.778Z,71.19
2019-02-24T06:10:46.894Z,71.14
2019-02-24T06:13:16.055Z,71.52
2019-02-24T06:15:45.237Z,71.06
2019-02-24T06:18:14.401Z,70.96
2019-02-24T06:20:43.549Z,71.25
2019-02-24T06:23:12.699Z,71.07
2019-02-24T06:25:41.865Z,71.05
2019-02-24T06:28:11.005Z,71.39
2019-02-24T06:30:40.293Z,71.31
2019-02-24T06:33:09.433Z,71.23
2019-02-24T06:35:38.619Z,71.14
2019-02-24T06:38:07.752Z,71.17
2019-02-24T06:40:36.980Z,71.19
2019-02-24T06:43:06.113Z,71.25
2019-02-24T06:45:35.256Z,71.20
2019-02-24T06:48:04.436Z,71.04
2019-02-24T06:50:52.674Z,70.67
2019-02-24T06:53:21.987Z,69.48
2019-02-24T06:55:51.137Z,68.30
2019-02-24T06:58:20.282Z,66.79
2019-02-24T07:00:49.419Z,63.90
2019-02-24T07:03:19.276Z,60.26
2019-02-24T07:05:48.448Z,56.15
2019-02-24T07:08:17.630Z,52.11
2019-02-24T07:10:46.765Z,51.47
2019-02-24T07:13:15.943Z,51.83
2019-02-24T07:15:45.103Z,50.99
2019-02-24T07:18:14.255Z,48.64
2019-02-24T07:20:43.490Z,46.39
2019-02-24T07:23:12.621Z,45.97
2019-02-24T07:25:41.768Z,45.69
2019-02-24T07:28:14.001Z,44.92
2019-02-24T07:30:43.138Z,43.55
2019-02-24T07:33:12.537Z,41.53
2019-02-24T07:35:41.707Z,38.76
2019-02-24T07:38:10.877Z,36.13
2019-02-24T07:40:40.032Z,34.03
2019-02-24T07:43:09.242Z,32.82
2019-02-24T07:45:38.368Z,32.36
2019-02-24T07:48:07.554Z,32.03
2019-02-24T07:50:36.693Z,32.17
2019-02-24T07:53:06.052Z,31.42
2019-02-24T07:55:35.214Z,31.03
2019-02-24T07:58:04.348Z,30.59
2019-02-24T08:00:33.486Z,30.86
2019-02-24T08:03:02.656Z,31.35
2019-02-24T08:05:31.896Z,31.62
2019-02-24T08:08:02.517Z,31.91
2019-02-24T08:10:31.744Z,32.40
2019-02-24T08:13:00.916Z,32.34
2019-02-24T08:15:30.148Z,33.18
2019-02-24T08:17:59.339Z,32.80
2019-02-24T08:20:28.479Z,32.17
2019-02-24T08:22:57.717Z,31.12
2019-02-24T08:25:26.975Z,30.82
2019-02-24T08:27:56.150Z,29.88
2019-02-24T08:30:25.317Z,29.51
2019-02-24T08:32:54.527Z,27.18
2019-02-24T08:35:23.715Z,24.94
2019-02-24T08:37:52.967Z,24.20
2019-02-24T08:40:22.137Z,23.97
2019-02-24T08:42:51.325Z,23.55
2019-02-24T08:45:20.519Z,22.75
2019-02-24T08:47:49.667Z,22.74
2019-02-24T08:50:18.840Z,22.13
2019-02-24T08:52:47.997Z,22.25
2019-02-24T08:55:17.170Z,22.58
2019-02-24T08:57:46.414Z,21.17
2019-02-24T09:00:15.600Z,20.14
2019-02-24T09:02:44.824Z,18.50
2019-02-24T09:05:14.150Z,18.04
2019-02-24T09:07:43.354Z,17.17
2019-02-24T09:10:12.482Z,16.51
2019-02-24T09:12:41.845Z,16.14
2019-02-24T09:15:11.165Z,15.93
2019-02-24T09:17:40.380Z,15.60
2019-02-24T09:20:10.122Z,15.17
2019-02-24T09:22:39.276Z,15.54
2019-02-24T09:25:08.841Z,14.73
2019-02-24T09:27:38.185Z,14.68
2019-02-24T09:30:08.383Z,14.40
2019-02-24T09:32:37.787Z,14.71
2019-02-24T09:35:07.930Z,14.33
2019-02-24T09:37:37.065Z,15.31
2019-02-24T09:40:07.493Z,14.78
2019-02-24T09:42:36.701Z,15.88
2019-02-24T09:45:06.549Z,15.70
2019-02-24T09:47:35.733Z,15.74
2019-02-24T09:50:05.057Z,16.04
2019-02-24T09:52:34.221Z,17.14
2019-02-24T09:55:03.404Z,17.62
2019-02-24T09:57:32.572Z,17.18
2019-02-24T10:00:01.820Z,17.48
2019-02-24T10:02:31.069Z,16.86
2019-02-24T10:05:00.278Z,17.02
2019-02-24T10:07:29.449Z,16.39
2019-02-24T10:09:58.705Z,17.69
2019-02-24T10:12:27.960Z,16.93
2019-02-24T10:14:57.147Z,17.08
2019-02-24T10:17:26.349Z,18.03
2019-02-24T10:19:55.562Z,17.64
2019-02-24T10:22:24.826Z,17.21
2019-02-24T10:24:54.338Z,18.13
2019-02-24T10:27:23.487Z,17.39
2019-02-24T10:29:52.683Z,17.49
2019-02-24T10:32:21.866Z,17.42
2019-02-24T10:34:51.389Z,18.77
2019-02-24T10:37:20.734Z,17.74
2019-02-24T10:39:49.906Z,18.05
2019-02-24T10:42:20.028Z,17.07
2019-02-24T10:44:49.204Z,17.70
2019-02-24T10:47:18.417Z,18.91
2019-02-24T10:49:47.776Z,16.87
2019-02-24T10:52:17.209Z,16.50
2019-02-24T10:54:46.671Z,18.09
2019-02-24T10:57:16.114Z,18.40
2019-02-24T10:59:45.403Z,18.13
2019-02-24T11:02:14.556Z,18.50
2019-02-24T11:04:43.791Z,18.33
2019-02-24T11:07:12.981Z,18.10
2019-02-24T11:09:42.186Z,17.66
2019-02-24T11:12:11.368Z,19.09
2019-02-24T11:14:40.560Z,18.48
2019-02-24T11:17:09.736Z,19.44
2019-02-24T11:19:39.002Z,18.55
2019-02-24T11:22:08.216Z,19.95
2019-02-24T11:24:37.416Z,20.42
2019-02-24T11:27:06.578Z,20.36
2019-02-24T11:29:35.782Z,20.55
2019-02-24T11:32:04.942Z,19.90
2019-02-24T11:34:34.229Z,19.55
2019-02-24T11:37:03.439Z,18.89
2019-02-24T11:39:32.667Z,19.24
2019-02-24T11:42:01.825Z,18.78
2019-02-24T11:44:31.046Z,19.22
2019-02-24T11:47:00.223Z,19.54
2019-02-24T11:49:29.409Z,19.49
2019-02-24T11:52:03.803Z,19.97
2019-02-24T11:54:29.451Z,19.07
2019-02-24T11:56:58.719Z,19.47
2019-02-24T11:59:27.887Z,19.57
2019-02-24T12:01:57.097Z,18.42
2019-02-24T12:04:26.270Z,19.11
2019-02-24T12:06:55.488Z,19.36
2019-02-24T12:09:24.646Z,19.79
2019-02-24T12:11:53.806Z,19.65
2019-02-24T12:14:23.013Z,19.16
2019-02-24T12:16:52.276Z,19.70
2019-02-24T12:19:21.569Z,18.35
2019-02-24T12:21:50.780Z,18.28
2019-02-24T12:24:20.022Z,18.37
2019-02-24T12:26:49.182Z,19.15
2019-02-24T12:29:18.343Z,19.39
2019-02-24T12:31:56.177Z,18.30
2019-02-24T12:34:18.426Z,17.59
2019-02-24T12:36:47.595Z,18.17
2019-02-24T12:39:16.754Z,18.84
2019-02-24T12:41:45.901Z,18.12
2019-02-24T12:44:15.053Z,18.25
2019-02-24T12:46:44.266Z,19.00
2019-02-24T12:49:13.438Z,18.44
2019-02-24T12:51:42.612Z,18.52
2019-02-24T12:54:11.781Z,17.62
2019-02-24T12:56:40.956Z,16.99
2019-02-24T12:59:11.933Z,18.37
2019-02-24T13:01:41.302Z,17.92
2019-02-24T13:04:10.528Z,17.33
2019-02-24T13:06:39.785Z,17.85
2019-02-24T13:09:10.357Z,18.39
2019-02-24T13:11:39.510Z,18.51
2019-02-24T13:14:08.887Z,18.29
2019-02-24T13:16:38.101Z,17.28
2019-02-24T13:19:07.231Z,16.46
2019-02-24T13:21:36.489Z,15.82
2019-02-24T13:24:05.813Z,16.12
2019-02-24T13:26:35.132Z,16.64
2019-02-24T13:29:04.295Z,16.01
2019-02-24T13:31:33.428Z,16.01
2019-02-24T13:34:02.628Z,16.07
2019-02-24T13:36:31.820Z,16.99
2019-02-24T13:39:00.928Z,16.88
2019-02-24T13:41:30.176Z,15.91
2019-02-24T13:43:59.350Z,15.54
2019-02-24T13:46:28.496Z,16.23
2019-02-24T13:48:57.658Z,15.81
2019-02-24T13:51:26.834Z,15.56
2019-02-24T13:53:56.012Z,15.55
2019-02-24T13:56:25.265Z,15.75
2019-02-24T13:58:54.416Z,15.29
2019-02-24T14:01:23.591Z,15.36
2019-02-24T14:03:52.921Z,15.71
2019-02-24T14:06:22.059Z,14.56
2019-02-24T14:08:51.249Z,14.33
2019-02-24T14:11:20.401Z,14.20
2019-02-24T14:13:49.541Z,14.74
2019-02-24T14:16:18.680Z,14.03
2019-02-24T14:18:47.851Z,12.97
2019-02-24T14:21:19.739Z,13.41
2019-02-24T14:23:48.923Z,13.66
2019-02-24T14:26:19.753Z,14.00
2019-02-24T14:28:49.080Z,14.65
2019-02-24T14:31:18.251Z,15.73
2019-02-24T14:33:47.476Z,15.85
2019-02-24T14:36:16.615Z,15.50
2019-02-24T14:38:45.761Z,15.42
2019-02-24T14:41:14.926Z,16.25
2019-02-24T14:43:44.068Z,16.57
2019-02-24T14:46:13.270Z,16.84
2019-02-24T14:48:44.720Z,17.30
2019-02-24T14:51:13.614Z,17.32
2019-02-24T14:53:42.774Z,17.81
2019-02-24T14:56:11.942Z,18.33
2019-02-24T14:58:41.166Z,18.75
2019-02-24T15:01:10.351Z,19.50
2019-02-24T15:03:39.517Z,19.57
2019-02-24T15:06:08.691Z,19.43
2019-02-24T15:08:37.889Z,19.74
2019-02-24T15:11:07.189Z,19.68
2019-02-24T15:13:36.386Z,16.29
2019-02-24T15:16:05.645Z,15.27
2019-02-24T15:18:34.890Z,14.93
2019-02-24T15:21:04.075Z,14.68
2019-02-24T15:23:33.313Z,14.08
2019-02-24T15:26:02.479Z,14.22
2019-02-24T15:28:31.677Z,15.00
2019-02-24T15:31:00.808Z,15.83
2019-02-24T15:33:29.975Z,17.09
2019-02-24T15:35:59.109Z,17.88
2019-02-24T15:38:28.294Z,18.28
2019-02-24T15:40:57.462Z,18.99
2019-02-24T15:43:26.661Z,19.58
2019-02-24T15:45:55.887Z,20.75
2019-02-24T15:48:25.156Z,22.57
2019-02-24T15:50:54.338Z,23.76
2019-02-24T15:53:24.410Z,24.83
2019-02-24T15:55:53.750Z,25.68
2019-02-24T15:58:22.997Z,26.33
2019-02-24T16:00:52.166Z,27.37
2019-02-24T16:03:21.424Z,27.70
2019-02-24T16:05:50.587Z,27.02
2019-02-24T16:08:19.825Z,26.70
2019-02-24T16:10:49.135Z,26.78
2019-02-24T16:13:18.295Z,26.87
2019-02-24T16:15:47.619Z,27.56
2019-02-24T16:18:16.796Z,27.59
2019-02-24T16:20:46.091Z,28.28
2019-02-24T16:23:15.385Z,29.35
2019-02-24T16:25:44.985Z,29.55
2019-02-24T16:28:14.219Z,29.67
2019-02-24T16:30:45.854Z,30.12
2019-02-24T16:33:15.208Z,30.59
2019-02-24T16:35:44.540Z,30.80
2019-02-24T16:38:13.735Z,31.11
2019-02-24T16:40:42.953Z,31.58
2019-02-24T16:43:12.258Z,32.82
2019-02-24T16:45:41.966Z,33.95
2019-02-24T16:48:11.217Z,34.47
2019-02-24T16:50:42.600Z,34.28
2019-02-24T16:53:11.860Z,33.83
2019-02-24T16:55:41.089Z,34.09
2019-02-24T16:58:10.292Z,34.20
2019-02-24T17:00:39.609Z,34.44
2019-02-24T17:03:09.167Z,34.69
2019-02-24T17:05:38.654Z,35.02
2019-02-24T17:08:08.268Z,35.50
2019-02-24T17:10:37.782Z,35.70
2019-02-24T17:13:07.029Z,35.52
2019-02-24T17:15:36.197Z,34.79
2019-02-24T17:18:05.382Z,34.61
2019-02-24T17:20:34.566Z,35.96
2019-02-24T17:23:03.886Z,36.82
2019-02-24T17:25:33.077Z,37.16
2019-02-24T17:28:02.378Z,37.87
2019-02-24T17:30:31.708Z,38.38
2019-02-24T17:33:01.011Z,38.65
2019-02-24T17:35:30.329Z,38.94
2019-02-24T17:37:59.648Z,39.41
2019-02-24T17:40:28.858Z,39.71
2019-02-24T17:42:58.193Z,39.31
2019-02-24T17:45:27.632Z,38.77
2019-02-24T17:47:57.214Z,39.26
2019-02-24T17:50:27.122Z,39.92
2019-02-24T17:52:56.684Z,40.15
2019-02-24T17:55:26.059Z,40.43
2019-02-24T17:57:56.012Z,40.99
2019-02-24T18:00:29.379Z,41.23
2019-02-24T18:02:59.404Z,41.61
2019-02-24T18:05:28.712Z,41.87
2019-02-24T18:08:00.502Z,41.91
2019-02-24T18:10:30.033Z,41.78
2019-02-24T18:12:59.218Z,41.79
2019-02-24T18:15:28.664Z,41.78
2019-02-24T18:17:57.913Z,41.99
2019-02-24T18:20:27.179Z,42.34
2019-02-24T18:22:56.837Z,42.53
2019-02-24T18:25:26.174Z,42.73
2019-02-24T18:27:55.631Z,43.40
2019-02-24T18:30:25.093Z,44.21
2019-02-24T18:32:54.593Z,44.68
2019-02-24T18:35:23.791Z,44.98
2019-02-24T18:37:53.512Z,45.29
2019-02-24T18:40:23.415Z,45.49
2019-02-24T18:42:59.608Z,45.60
2019-02-24T18:45:25.223Z,45.54
2019-02-24T18:47:54.727Z,45.78
2019-02-24T18:50:25.272Z,46.14
2019-02-24T18:52:54.711Z,46.42
2019-02-24T18:55:24.391Z,46.62
2019-02-24T18:57:55.985Z,46.83
2019-02-24T19:00:26.164Z,47.00
2019-02-24T19:02:55.775Z,46.89
2019-02-24T19:05:26.203Z,46.20
2019-02-24T19:07:55.610Z,46.29
2019-02-24T19:10:25.696Z,46.34
2019-02-24T19:12:55.911Z,46.55
2019-02-24T19:15:25.418Z,46.69
2019-02-24T19:17:55.207Z,46.91
2019-02-24T19:20:25.576Z,47.12
2019-02-24T19:22:55.651Z,46.99
2019-02-24T19:25:25.121Z,47.40
2019-02-24T19:27:54.761Z,47.84
2019-02-24T19:30:25.989Z,48.05
2019-02-24T19:32:55.726Z,48.28
2019-02-24T19:35:25.647Z,48.66
2019-02-24T19:37:55.196Z,49.08
2019-02-24T19:40:25.082Z,49.38
2019-02-24T19:42:54.490Z,49.50
2019-02-24T19:45:24.689Z,49.61
2019-02-24T19:47:54.615Z,49.74
2019-02-24T19:50:24.708Z,49.93
2019-02-24T19:52:54.191Z,50.12
2019-02-24T19:55:24.311Z,50.30
2019-02-24T19:57:53.956Z,50.32
2019-02-24T20:00:23.384Z,50.51
2019-02-24T20:02:52.903Z,50.82
2019-02-24T20:05:22.495Z,50.82
2019-02-24T20:07:52.213Z,50.62
2019-02-24T20:10:22.058Z,50.40
2019-02-24T20:12:51.396Z,50.15
2019-02-24T20:15:21.388Z,49.29
2019-02-24T20:17:51.232Z,48.65
2019-02-24T20:20:20.725Z,49.09
2019-02-24T20:22:50.670Z,49.74
2019-02-24T20:25:20.097Z,50.14
2019-02-24T20:27:49.559Z,50.42
2019-02-24T20:30:24.793Z,51.03
2019-02-24T20:32:54.322Z,51.32
2019-02-24T20:35:23.658Z,51.57
2019-02-24T20:37:55.031Z,51.87
2019-02-24T20:40:24.661Z,52.05
2019-02-24T20:42:54.181Z,52.26
2019-02-24T20:45:23.667Z,52.36
2019-02-24T20:47:53.596Z,52.54
2019-02-24T20:50:23.571Z,52.86
2019-02-24T20:52:53.453Z,53.06
2019-02-24T20:55:23.097Z,53.13
2019-02-24T20:57:52.532Z,53.01
2019-02-24T21:00:27.864Z,53.11
2019-02-24T21:02:57.291Z,53.13
2019-02-24T21:05:26.813Z,53.24
2019-02-24T21:07:56.106Z,53.22
2019-02-24T21:10:26.686Z,53.06
2019-02-24T21:12:55.951Z,53.13
2019-02-24T21:15:25.781Z,53.26
2019-02-24T21:17:55.089Z,53.14
2019-02-24T21:20:26.284Z,53.41
2019-02-24T21:22:55.448Z,53.67
2019-02-24T21:25:24.711Z,53.55
2019-02-24T21:27:54.002Z,53.40
2019-02-24T21:30:23.376Z,53.54
2019-02-24T21:32:52.523Z,52.31
2019-02-24T21:35:22.710Z,51.98
2019-02-24T21:37:51.966Z,52.21
2019-02-24T21:40:23.450Z,53.02
2019-02-24T21:42:52.392Z,53.71
2019-02-24T21:45:23.219Z,54.35
2019-02-24T21:47:52.473Z,54.75
2019-02-24T21:50:21.846Z,55.09
2019-02-24T21:52:51.104Z,55.30
2019-02-24T21:55:20.221Z,55.32
2019-02-24T21:57:49.534Z,55.40
2019-02-24T22:00:20.144Z,55.32
2019-02-24T22:02:49.383Z,55.07
2019-02-24T22:05:18.581Z,54.68
2019-02-24T22:07:47.755Z,54.69
2019-02-24T22:10:17.517Z,54.90
2019-02-24T22:12:46.685Z,54.81
2019-02-24T22:15:17.390Z,54.68
2019-02-24T22:17:46.619Z,54.72
2019-02-24T22:20:16.410Z,54.85
2019-02-24T22:22:45.589Z,54.90
2019-02-24T22:25:14.898Z,54.95
2019-02-24T22:27:44.404Z,55.19
2019-02-24T22:30:14.698Z,55.29
2019-02-24T22:32:43.876Z,55.41
2019-02-24T22:35:13.049Z,55.54
2019-02-24T22:37:42.202Z,55.71
2019-02-24T22:40:11.884Z,56.01
2019-02-24T22:42:41.058Z,56.31
2019-02-24T22:45:12.478Z,56.27
2019-02-24T22:47:41.675Z,56.58
2019-02-24T22:50:10.832Z,56.64
2019-02-24T22:52:39.986Z,56.31
2019-02-24T22:55:10.025Z,55.78
2019-02-24T22:57:39.267Z,55.25
2019-02-24T23:00:28.955Z,55.85
2019-02-24T23:02:58.107Z,56.48
2019-02-24T23:05:27.241Z,56.48
2019-02-24T23:07:56.398Z,56.43
2019-02-24T23:10:25.527Z,56.75
2019-02-24T23:12:54.660Z,56.72
2019-02-24T23:15:23.922Z,56.69
2019-02-24T23:17:53.055Z,56.81
2019-02-24T23:20:22.172Z,56.76
2019-02-24T23:22:51.306Z,56.64
2019-02-24T23:25:20.450Z,56.83
2019-02-24T23:27:49.583Z,56.91
2019-02-24T23:30:18.714Z,57.01
2019-02-24T23:32:47.885Z,57.20
2019-02-24T23:35:17.030Z,57.21
2019-02-24T23:37:46.152Z,57.30
2019-02-24T23:40:15.302Z,57.44
2019-02-24T23:42:44.450Z,57.64
2019-02-24T23:45:13.693Z,57.84
2019-02-24T23:47:42.822Z,57.98
2019-02-24T23:50:11.947Z,58.08
2019-02-24T23:52:41.189Z,58.30
2019-02-24T23:55:10.446Z,58.52
2019-02-24T23:57:39.631Z,58.55
